Decoded Metar for LFTH (HYERES in FRANCE) (IATA:TLN) | Meteo·Mobile Aviation Weather
aviador You're here:

LFTH Decoded Metar

HYERES in FRANCE
Report Time2018-08-21 16:00:00
UTC Time2018-08-21 16:06:23
Flight Rules vfr VFR
Wind140° at 05 kt
W.Decomp.*RWY 13: 4.9 kt HW 0.8 kt RCW
RWY 05: 0.1 kt HW 5.0 kt RCW
W.Rank140° ranks 28
Current wind is below 140° avg. (6.3)
Visibility9999 m
Phenomena:N/A
Clouds:N/A
Expected CloudBase > 3,200 ft AGL from Temp-Dew spread
CeilingNone
Temp30°C (ISA +15)
Dew Point22°C (62% RH)
Heat Index33.2°C
QNH1014 hPa
Density Alt2,051 ft
Elevation13 ft
Report Wrong Elevation
Raw Report
METAR LFTH 211600Z AUTO 14005KT 110V170 CAVOK 30/22 Q1014 NOSIG=

Extra information for LFTH:More info

Metar Taf Metar & Taf Last 4 Metars F.Rules Stats Wind Profile Meteogram Temp Stats Airport Information Weather charts Add Link Nearby VenuesMetar ALERT Operation Metar Decoded Social comments